Time;durP1;ratioP1;P1;durP2;ratioP2;P2;SDS_P1;SDS_P2;PMS_P1;PMS_P2;Temp;Humidity;BMP_temperature;BMP_pressure;BME280_temperature;BME280_humidity;BME280_pressure;Samples;Min_cycle;Max_cycle;Signal;HPM_P1;HPM_P2
2022/05/19 00:01:04;;;;;;;26.52;21.27;;;15.80;99.90;;;;;;5029400;28;20041;-84
2022/05/19 00:03:31;;;;;;;24.23;19.92;;;15.60;99.90;;;;;;5028351;28;20041;-83
2022/05/19 00:05:58;;;;;;;29.90;22.17;;;15.60;99.90;;;;;;5029376;28;20075;-83
2022/05/19 00:08:24;;;;;;;32.88;22.65;;;15.60;99.90;;;;;;5045666;28;20065;-83
2022/05/19 00:10:51;;;;;;;25.92;21.13;;;15.60;99.90;;;;;;5033624;28;20402;-83
2022/05/19 00:13:17;;;;;;;29.73;21.77;;;15.60;99.90;;;;;;5016451;28;20053;-83
2022/05/19 00:15:42;;;;;;;32.58;22.67;;;15.60;99.90;;;;;;5037006;28;20048;-83
2022/05/19 00:18:08;;;;;;;27.42;20.35;;;15.60;99.90;;;;;;5030838;28;20095;-84
2022/05/19 00:20:34;;;;;;;28.10;21.65;;;15.50;99.90;;;;;;5005299;28;20083;-84
2022/05/19 00:23:00;;;;;;;25.60;20.88;;;15.50;99.90;;;;;;5015590;28;20049;-83
2022/05/19 00:25:25;;;;;;;28.95;21.75;;;15.50;99.90;;;;;;5027858;28;20080;-83
2022/05/19 00:27:51;;;;;;;28.70;22.20;;;15.50;99.90;;;;;;5043845;28;20053;-83
2022/05/19 00:30:17;;;;;;;31.27;23.63;;;15.50;99.90;;;;;;5026594;28;20069;-83
2022/05/19 00:32:42;;;;;;;31.55;23.25;;;15.50;99.90;;;;;;5045244;28;20053;-83
2022/05/19 00:35:08;;;;;;;34.72;24.92;;;15.50;99.90;;;;;;5013950;28;20057;-83
2022/05/19 00:37:34;;;;;;;29.08;22.33;;;15.40;99.90;;;;;;5031406;28;20049;-83
2022/05/19 00:39:59;;;;;;;29.25;21.90;;;15.40;99.90;;;;;;5012424;28;20682;-83
2022/05/19 00:42:43;;;;;;;34.28;22.63;;;15.30;99.90;;;;;;5048438;28;20041;-83
2022/05/19 00:45:14;;;;;;;34.63;25.50;;;15.30;99.90;;;;;;5029715;28;20405;-84
2022/05/19 00:47:48;;;;;;;29.13;22.63;;;15.20;99.90;;;;;;4996275;28;20670;-84
2022/05/19 00:50:23;;;;;;;30.33;24.05;;;15.20;99.90;;;;;;5045027;28;20077;-83
2022/05/19 00:52:51;;;;;;;32.47;24.50;;;15.20;99.90;;;;;;5045611;28;20408;-83
2022/05/19 00:55:24;;;;;;;29.60;23.75;;;15.10;99.90;;;;;;5024626;28;20030;-83
2022/05/19 00:58:02;;;;;;;34.88;25.35;;;15.10;99.90;;;;;;5013485;28;20053;-83
2022/05/19 01:00:29;;;;;;;34.17;24.60;;;15.10;99.90;;;;;;5022190;28;20148;-83
2022/05/19 01:03:00;;;;;;;33.83;26.13;;;15.10;99.90;;;;;;5014257;28;20050;-83
2022/05/19 01:05:39;;;;;;;33.10;25.23;;;15.00;99.90;;;;;;5034451;28;20052;-83
2022/05/19 01:08:25;;;;;;;31.77;25.13;;;15.00;99.90;;;;;;5047890;28;20065;-82
2022/05/19 01:10:53;;;;;;;34.20;27.00;;;15.00;99.90;;;;;;5027778;28;20091;-83
2022/05/19 01:13:21;;;;;;;34.30;26.10;;;15.00;99.90;;;;;;5028203;28;20049;-83
2022/05/19 01:15:50;;;;;;;33.10;25.90;;;15.00;99.90;;;;;;5037923;28;20045;-83
2022/05/19 01:18:17;;;;;;;27.27;23.98;;;14.90;99.90;;;;;;5026613;28;20422;-83
2022/05/19 01:20:44;;;;;;;43.30;30.02;;;15.00;99.90;;;;;;5044529;28;20049;-83
2022/05/19 01:23:44;;;;;;;39.40;27.92;;;15.00;99.90;;;;;;5044124;28;20228;-83
2022/05/19 01:26:25;;;;;;;41.72;31.13;;;15.00;99.90;;;;;;5020600;28;20465;-83
2022/05/19 01:28:51;;;;;;;39.00;29.80;;;15.00;99.90;;;;;;5038527;28;20050;-83
2022/05/19 01:31:43;;;;;;;40.45;30.27;;;14.90;99.90;;;;;;5009348;28;20046;-83
2022/05/19 01:34:09;;;;;;;41.35;30.42;;;14.90;99.90;;;;;;5028592;28;20034;-83
2022/05/19 01:36:35;;;;;;;41.60;33.05;;;14.90;99.90;;;;;;5041534;28;20585;-83
2022/05/19 01:39:07;;;;;;;45.40;33.38;;;14.90;99.90;;;;;;4996040;28;20045;-83
2022/05/19 01:41:47;;;;;;;52.75;34.65;;;14.90;99.90;;;;;;5054868;28;20042;-83
2022/05/19 01:44:34;;;;;;;44.72;35.28;;;14.90;99.90;;;;;;5032620;28;20076;-83
2022/05/19 01:47:20;;;;;;;49.08;38.25;;;14.90;99.90;;;;;;5007394;28;20048;-83
2022/05/19 01:49:56;;;;;;;50.80;35.95;;;14.80;99.90;;;;;;5005201;28;20052;-83
2022/05/19 01:52:46;;;;;;;50.92;38.70;;;14.70;99.90;;;;;;5028304;28;20110;-83
2022/05/19 01:55:21;;;;;;;61.13;39.47;;;14.80;99.90;;;;;;5010076;28;20056;-83
2022/05/19 01:57:55;;;;;;;49.97;38.45;;;14.70;99.90;;;;;;5015562;28;20049;-83
2022/05/19 02:00:24;;;;;;;55.53;40.78;;;14.70;99.90;;;;;;5027904;28;20037;-83
2022/05/19 02:03:07;;;;;;;63.70;46.10;;;14.70;99.90;;;;;;5007300;28;20456;-83
2022/05/19 02:06:00;;;;;;;59.40;43.83;;;14.70;99.90;;;;;;5022857;28;20076;-84
2022/05/19 02:08:41;;;;;;;57.75;44.92;;;14.70;99.90;;;;;;5031185;28;20041;-83
2022/05/19 02:11:12;;;;;;;58.05;45.53;;;14.70;99.90;;;;;;5026343;28;20038;-83
2022/05/19 02:13:38;;;;;;;67.40;48.80;;;14.70;99.90;;;;;;5044020;28;20045;-82
2022/05/19 02:16:08;;;;;;;66.95;50.08;;;14.70;99.90;;;;;;5005069;28;20068;-84
2022/05/19 02:18:34;;;;;;;64.03;49.40;;;14.70;99.90;;;;;;5044045;28;20040;-83
2022/05/19 02:21:02;;;;;;;75.00;55.53;;;14.70;99.90;;;;;;5014880;28;20521;-83
2022/05/19 02:23:31;;;;;;;75.00;55.17;;;14.70;99.90;;;;;;5027142;28;20091;-83
2022/05/19 02:25:57;;;;;;;83.88;56.92;;;14.70;99.90;;;;;;5042268;28;20045;-82
2022/05/19 02:28:31;;;;;;;79.65;55.15;;;14.70;99.90;;;;;;5028249;28;20111;-83
2022/05/19 02:30:58;;;;;;;78.82;56.67;;;14.70;99.90;;;;;;5028891;28;20049;-83
2022/05/19 02:33:24;;;;;;;82.70;56.30;;;14.70;99.90;;;;;;5027889;28;20065;-83
2022/05/19 02:35:50;;;;;;;78.22;58.08;;;14.70;99.90;;;;;;5026180;28;20045;-83
2022/05/19 02:38:17;;;;;;;81.18;59.95;;;14.80;99.90;;;;;;5010882;28;20623;-83
2022/05/19 02:40:44;;;;;;;85.38;59.67;;;14.80;99.90;;;;;;5010977;28;20465;-82
2022/05/19 02:43:11;;;;;;;80.47;60.88;;;14.80;99.90;;;;;;5027400;28;20107;-83
2022/05/19 02:45:37;;;;;;;79.13;58.65;;;14.80;99.90;;;;;;5008567;28;20053;-84
2022/05/19 02:48:06;;;;;;;88.40;63.42;;;14.80;99.90;;;;;;5011706;28;20061;-84
2022/05/19 02:50:32;;;;;;;86.78;63.22;;;14.80;99.90;;;;;;5014559;28;20049;-84
2022/05/19 02:52:58;;;;;;;86.38;61.30;;;14.80;99.90;;;;;;5032142;28;20049;-83
2022/05/19 02:55:24;;;;;;;99.60;68.50;;;14.90;99.90;;;;;;5014297;28;20106;-83
2022/05/19 02:57:51;;;;;;;87.32;61.55;;;14.90;99.90;;;;;;5015485;28;20478;-83
2022/05/19 03:00:20;;;;;;;90.20;63.80;;;14.90;99.90;;;;;;5014710;28;20049;-84
2022/05/19 03:02:47;;;;;;;86.07;59.13;;;14.90;99.90;;;;;;5047058;28;20056;-83
2022/05/19 03:05:18;;;;;;;81.30;60.58;;;14.90;99.90;;;;;;5012334;28;20124;-83
2022/05/19 03:07:44;;;;;;;82.32;63.15;;;15.00;99.90;;;;;;5015858;28;20045;-83
2022/05/19 03:10:10;;;;;;;81.35;62.40;;;15.00;99.90;;;;;;5018937;28;20060;-84
2022/05/19 03:12:36;;;;;;;85.47;61.75;;;15.00;99.90;;;;;;5031371;28;20041;-83
2022/05/19 03:15:02;;;;;;;82.40;60.38;;;15.10;99.90;;;;;;5045193;28;20038;-83
2022/05/19 03:17:28;;;;;;;78.05;59.28;;;15.10;99.90;;;;;;5029390;28;20063;-83
2022/05/19 03:19:55;;;;;;;83.72;63.60;;;15.20;99.90;;;;;;5012021;28;20465;-83
2022/05/19 03:22:21;;;;;;;86.72;61.97;;;15.10;99.90;;;;;;5048140;28;20132;-84
2022/05/19 03:24:47;;;;;;;87.00;63.33;;;15.10;99.90;;;;;;5045297;28;20172;-83
2022/05/19 03:27:13;;;;;;;91.78;66.40;;;15.10;99.90;;;;;;5028390;28;20143;-83
2022/05/19 03:29:39;;;;;;;82.97;61.28;;;15.10;99.90;;;;;;5031847;28;20053;-82
2022/05/19 03:32:05;;;;;;;88.15;62.17;;;15.10;99.90;;;;;;4986617;28;20048;-83
2022/05/19 03:34:31;;;;;;;92.28;64.32;;;15.10;99.90;;;;;;4992322;28;20060;-84
2022/05/19 03:36:57;;;;;;;93.18;65.47;;;15.10;99.90;;;;;;5026147;28;20033;-83
2022/05/19 03:39:23;;;;;;;77.72;57.55;;;15.10;99.90;;;;;;5029170;28;20052;-84
2022/05/19 03:41:48;;;;;;;78.55;59.28;;;15.10;99.90;;;;;;5004109;28;20053;-84
2022/05/19 03:44:14;;;;;;;78.88;57.10;;;15.10;99.90;;;;;;5025747;28;20057;-83
2022/05/19 03:46:40;;;;;;;88.00;63.83;;;15.10;99.90;;;;;;5013549;28;20042;-84
2022/05/19 03:49:06;;;;;;;78.28;56.42;;;15.20;99.90;;;;;;5003065;28;20053;-83
2022/05/19 03:51:33;;;;;;;76.93;57.55;;;15.10;99.90;;;;;;5021363;28;20049;-84
2022/05/19 03:53:59;;;;;;;79.03;58.97;;;15.10;99.90;;;;;;5014656;28;20049;-83
2022/05/19 03:56:26;;;;;;;83.03;60.60;;;15.10;99.90;;;;;;5038018;28;20045;-83
2022/05/19 03:58:52;;;;;;;83.07;61.95;;;15.20;99.90;;;;;;5034670;28;20045;-84
2022/05/19 04:01:19;;;;;;;72.25;55.83;;;15.20;99.90;;;;;;5045401;28;20046;-82
2022/05/19 04:03:46;;;;;;;79.57;60.47;;;15.20;99.90;;;;;;5045777;28;20088;-82
2022/05/19 04:06:13;;;;;;;70.90;54.50;;;15.20;99.90;;;;;;5034061;28;20487;-83
2022/05/19 04:08:39;;;;;;;81.38;58.95;;;15.20;99.90;;;;;;5029616;28;20052;-83
2022/05/19 04:11:05;;;;;;;79.72;60.03;;;15.20;99.90;;;;;;5010661;28;20078;-83
2022/05/19 04:13:31;;;;;;;83.78;59.67;;;15.30;99.90;;;;;;5012739;28;20045;-84
2022/05/19 04:15:57;;;;;;;79.80;58.15;;;15.30;99.90;;;;;;5027498;28;20082;-83
2022/05/19 04:18:23;;;;;;;79.60;58.80;;;15.40;99.90;;;;;;5012173;28;20045;-84
2022/05/19 04:20:49;;;;;;;82.13;59.97;;;15.40;99.90;;;;;;5033380;28;20056;-83
2022/05/19 04:23:16;;;;;;;84.97;60.72;;;15.30;99.90;;;;;;5044422;28;20049;-82
2022/05/19 04:25:41;;;;;;;82.95;58.58;;;15.40;99.90;;;;;;5034237;28;20053;-84
2022/05/19 04:28:08;;;;;;;73.05;54.90;;;15.30;99.90;;;;;;5025155;28;20045;-84
2022/05/19 04:30:33;;;;;;;74.43;56.83;;;15.40;99.90;;;;;;5044579;28;20053;-84
2022/05/19 04:32:59;;;;;;;78.35;58.10;;;15.50;99.90;;;;;;5015419;28;20057;-84
2022/05/19 04:35:25;;;;;;;74.05;54.00;;;15.60;99.90;;;;;;5044816;28;20045;-83
2022/05/19 04:37:51;;;;;;;70.53;54.45;;;15.70;99.90;;;;;;4997723;28;20045;-84
2022/05/19 04:40:18;;;;;;;76.57;55.40;;;15.90;99.90;;;;;;5038174;28;20061;-84
2022/05/19 04:42:44;;;;;;;79.55;57.40;;;16.00;99.90;;;;;;5029718;28;20588;-83
2022/05/19 04:45:14;;;;;;;85.22;61.35;;;16.20;99.90;;;;;;5008133;28;20129;-86
2022/05/19 04:47:39;;;;;;;74.47;56.10;;;16.40;99.90;;;;;;4998319;28;20084;-86
2022/05/19 04:50:07;;;;;;;78.25;57.50;;;16.50;99.90;;;;;;5010498;28;20479;-85
2022/05/19 04:52:33;;;;;;;84.65;61.40;;;16.60;99.90;;;;;;5004991;28;20057;-83
2022/05/19 04:54:59;;;;;;;75.10;58.40;;;16.70;99.90;;;;;;5010840;28;20056;-83
2022/05/19 04:57:25;;;;;;;86.32;61.72;;;16.70;99.90;;;;;;5014024;28;20042;-84
2022/05/19 04:59:50;;;;;;;75.68;57.15;;;16.70;99.90;;;;;;5027683;28;20057;-83
2022/05/19 05:02:16;;;;;;;70.50;55.70;;;16.70;99.90;;;;;;5023334;28;20088;-83
2022/05/19 05:04:42;;;;;;;78.18;59.47;;;16.70;99.90;;;;;;5006668;28;20777;-82
2022/05/19 05:07:08;;;;;;;72.60;54.17;;;16.80;99.90;;;;;;5011008;28;20529;-84
2022/05/19 05:09:34;;;;;;;72.57;55.33;;;16.80;99.90;;;;;;4976858;28;20045;-84
2022/05/19 05:11:59;;;;;;;71.63;54.70;;;16.90;99.90;;;;;;4995213;28;20044;-84
2022/05/19 05:14:25;;;;;;;71.25;53.92;;;16.90;99.90;;;;;;5010093;28;20045;-82
2022/05/19 05:16:53;;;;;;;65.55;53.05;;;17.00;99.90;;;;;;5031124;28;20470;-83
2022/05/19 05:19:22;;;;;;;67.03;51.88;;;17.00;99.90;;;;;;5010292;28;20903;-82
2022/05/19 05:21:50;;;;;;;63.40;48.50;;;17.10;99.90;;;;;;5007885;28;20049;-82
2022/05/19 05:24:17;;;;;;;63.42;49.88;;;17.20;99.90;;;;;;4992846;28;20562;-81
2022/05/19 05:26:43;;;;;;;65.97;49.85;;;17.40;99.90;;;;;;5012037;28;20048;-82
2022/05/19 05:29:09;;;;;;;63.35;50.35;;;17.50;99.90;;;;;;5044854;28;20099;-82
2022/05/19 05:31:35;;;;;;;59.65;49.13;;;17.60;99.90;;;;;;5032236;28;20080;-82
2022/05/19 05:34:01;;;;;;;57.38;46.17;;;17.70;99.90;;;;;;5035865;28;20045;-82
2022/05/19 05:36:27;;;;;;;54.83;44.80;;;17.80;99.90;;;;;;5029379;28;20053;-82
2022/05/19 05:38:53;;;;;;;53.05;41.97;;;17.90;99.90;;;;;;5013238;28;20052;-82
2022/05/19 05:41:21;;;;;;;48.58;40.47;;;18.00;99.90;;;;;;5029689;28;20048;-82
2022/05/19 05:43:46;;;;;;;44.58;35.53;;;18.20;99.90;;;;;;5029034;28;20041;-82
2022/05/19 05:46:15;;;;;;;46.08;35.28;;;18.20;99.90;;;;;;4992939;28;20053;-83
2022/05/19 05:48:42;;;;;;;42.05;32.53;;;18.40;99.90;;;;;;5009001;28;20527;-83
2022/05/19 05:51:10;;;;;;;37.17;32.65;;;18.60;99.90;;;;;;5009861;28;20060;-83
2022/05/19 05:53:37;;;;;;;34.67;30.38;;;18.80;99.90;;;;;;4992944;28;20450;-83
2022/05/19 05:56:05;;;;;;;38.72;30.48;;;19.10;99.90;;;;;;5010180;28;20135;-83
2022/05/19 05:58:31;;;;;;;32.00;27.15;;;19.30;99.90;;;;;;5012411;28;20045;-83
2022/05/19 06:00:58;;;;;;;33.92;28.52;;;19.50;99.90;;;;;;4996897;28;20414;-82
2022/05/19 06:03:24;;;;;;;32.25;26.20;;;19.70;99.90;;;;;;5012569;28;20049;-82
2022/05/19 06:05:50;;;;;;;30.42;25.52;;;19.80;99.90;;;;;;4997784;28;20104;-83
2022/05/19 06:08:16;;;;;;;27.15;23.42;;;19.90;99.90;;;;;;4993193;28;20038;-82
2022/05/19 06:10:43;;;;;;;30.50;23.42;;;20.20;99.90;;;;;;5009113;28;20370;-83
2022/05/19 06:13:09;;;;;;;26.45;20.73;;;20.30;99.90;;;;;;4993159;28;20396;-82
2022/05/19 06:15:35;;;;;;;23.00;19.00;;;20.40;99.90;;;;;;5003374;28;20342;-82
2022/05/19 06:18:01;;;;;;;21.15;16.92;;;20.50;99.90;;;;;;5009661;28;20049;-83
2022/05/19 06:20:27;;;;;;;20.00;16.65;;;20.50;99.90;;;;;;5008990;28;20111;-82
2022/05/19 06:22:53;;;;;;;21.92;17.42;;;20.40;99.90;;;;;;5009627;28;20050;-83
2022/05/19 06:25:22;;;;;;;20.63;16.50;;;20.50;99.90;;;;;;5008760;28;20053;-82
2022/05/19 06:27:51;;;;;;;20.02;15.25;;;20.70;99.90;;;;;;5032280;28;20095;-82
2022/05/19 06:30:20;;;;;;;19.15;15.07;;;20.90;99.90;;;;;;5033353;28;20099;-82
2022/05/19 06:32:47;;;;;;;20.65;16.25;;;21.00;99.90;;;;;;5016166;28;20250;-82
2022/05/19 06:35:16;;;;;;;23.20;16.25;;;21.10;99.90;;;;;;5015465;28;20495;-82
2022/05/19 06:37:42;;;;;;;19.30;15.45;;;21.10;99.90;;;;;;5032528;28;20098;-82
2022/05/19 06:40:09;;;;;;;19.92;15.80;;;21.20;99.90;;;;;;5016302;28;20180;-82
2022/05/19 06:42:36;;;;;;;18.70;15.73;;;21.50;99.90;;;;;;5016204;28;20053;-82
2022/05/19 06:45:02;;;;;;;18.13;15.38;;;22.00;99.90;;;;;;5019715;28;20514;-82
2022/05/19 06:47:28;;;;;;;19.15;14.25;;;22.30;99.90;;;;;;4979808;28;20061;-82
2022/05/19 06:49:55;;;;;;;20.30;15.32;;;22.40;99.90;;;;;;5012703;28;20061;-82
2022/05/19 06:52:31;;;;;;;17.58;15.68;;;22.40;99.90;;;;;;4996863;28;20085;-82
2022/05/19 06:55:00;;;;;;;20.45;15.65;;;22.20;99.90;;;;;;5022070;28;20060;-82
2022/05/19 06:57:28;;;;;;;19.35;15.68;;;22.10;99.90;;;;;;5016260;28;20494;-82
2022/05/19 06:59:54;;;;;;;22.05;15.02;;;21.90;99.90;;;;;;5016065;28;20045;-82
2022/05/19 07:02:23;;;;;;;20.58;16.63;;;21.70;99.90;;;;;;5032647;28;20068;-82
2022/05/19 07:04:49;;;;;;;18.67;15.70;;;21.60;99.90;;;;;;5020638;28;20045;-82
2022/05/19 07:07:15;;;;;;;22.27;15.52;;;21.50;99.90;;;;;;5012429;28;20100;-81
2022/05/19 07:09:41;;;;;;;20.23;15.45;;;21.40;99.90;;;;;;4979213;28;20148;-82
2022/05/19 07:12:09;;;;;;;18.08;14.75;;;21.30;99.90;;;;;;4996375;28;20049;-82
2022/05/19 07:14:35;;;;;;;17.58;15.63;;;21.20;99.90;;;;;;5019195;28;20049;-82
2022/05/19 07:17:01;;;;;;;19.83;16.08;;;21.00;99.90;;;;;;5032366;28;20049;-82
2022/05/19 07:22:22;;;;;;;22.25;16.85;;;20.70;99.90;;;;;;5032520;28;20052;-82
2022/05/19 07:24:48;;;;;;;20.55;15.50;;;20.50;99.90;;;;;;5029550;28;20092;-82
2022/05/19 07:27:14;;;;;;;20.40;16.27;;;20.30;99.90;;;;;;5015447;28;20152;-82
2022/05/19 07:29:41;;;;;;;20.65;17.13;;;20.10;99.90;;;;;;5015125;28;20057;-82
2022/05/19 07:32:08;;;;;;;22.75;18.83;;;19.90;99.90;;;;;;5015509;28;20092;-82
2022/05/19 07:34:36;;;;;;;22.42;18.38;;;19.80;99.90;;;;;;5021126;28;20502;-81
2022/05/19 07:37:02;;;;;;;23.13;18.33;;;19.60;99.90;;;;;;4995259;28;20037;-82
2022/05/19 07:39:28;;;;;;;23.50;20.35;;;19.60;99.90;;;;;;4979804;28;20053;-82
2022/05/19 07:41:55;;;;;;;24.75;19.65;;;19.60;99.90;;;;;;4979395;28;20125;-82
2022/05/19 07:44:22;;;;;;;26.08;19.77;;;19.70;99.90;;;;;;5018073;28;20048;-82
2022/05/19 07:46:48;;;;;;;22.05;19.02;;;19.70;99.90;;;;;;5014634;28;20136;-83
2022/05/19 07:49:14;;;;;;;25.58;21.00;;;19.70;99.90;;;;;;5031365;28;20513;-82
2022/05/19 07:51:42;;;;;;;23.73;20.77;;;19.60;99.90;;;;;;5014858;28;20057;-82
2022/05/19 07:54:12;;;;;;;26.90;22.25;;;19.50;99.90;;;;;;5029580;28;20095;-83
2022/05/19 07:56:39;;;;;;;25.10;21.77;;;19.30;99.90;;;;;;5014493;28;20042;-82
2022/05/19 07:59:04;;;;;;;25.90;21.70;;;19.20;99.90;;;;;;5031546;28;20063;-83
2022/05/19 08:01:30;;;;;;;26.73;22.83;;;19.10;99.90;;;;;;5031415;28;20041;-83
2022/05/19 08:03:57;;;;;;;25.63;21.63;;;19.10;99.90;;;;;;5031546;28;20053;-82
2022/05/19 08:06:23;;;;;;;27.15;23.20;;;19.00;99.90;;;;;;5014823;28;20053;-83
2022/05/19 08:08:50;;;;;;;26.38;21.33;;;19.10;99.90;;;;;;4998205;28;20402;-82
2022/05/19 08:11:15;;;;;;;25.33;21.88;;;19.20;99.90;;;;;;5031227;28;20091;-82
2022/05/19 08:16:26;;;;;;;28.25;22.88;;;19.40;99.90;;;;;;5011331;28;20093;-83
2022/05/19 08:18:51;;;;;;;27.08;22.10;;;19.50;99.90;;;;;;4994798;28;20088;-83
2022/05/19 08:21:18;;;;;;;29.60;23.92;;;19.60;99.90;;;;;;5011418;28;20620;-82
2022/05/19 08:23:46;;;;;;;31.17;25.33;;;19.60;99.90;;;;;;4996662;28;20042;-82
2022/05/19 08:26:13;;;;;;;28.23;23.80;;;19.60;99.90;;;;;;5030952;28;20052;-82
2022/05/19 08:28:41;;;;;;;27.92;23.20;;;19.60;99.90;;;;;;5030816;28;20072;-82
2022/05/19 08:31:11;;;;;;;26.05;22.40;;;19.50;99.90;;;;;;5014686;28;20410;-82
2022/05/19 08:33:39;;;;;;;27.05;23.50;;;19.60;99.90;;;;;;5028871;28;20107;-82
2022/05/19 08:36:07;;;;;;;27.42;23.02;;;19.60;99.90;;;;;;5014193;28;20072;-82
2022/05/19 08:38:32;;;;;;;25.80;22.98;;;19.70;99.90;;;;;;5014310;28;20185;-82
2022/05/19 08:41:12;;;;;;;28.48;22.52;;;19.90;99.90;;;;;;5013776;28;20054;-82
2022/05/19 08:43:49;;;;;;;26.55;23.20;;;20.00;99.90;;;;;;5028901;28;20038;-83
2022/05/19 08:46:20;;;;;;;26.98;23.73;;;20.10;99.90;;;;;;5030664;28;20396;-83
2022/05/19 08:48:50;;;;;;;27.75;24.38;;;20.20;99.90;;;;;;5011257;28;20065;-84
2022/05/19 08:51:17;;;;;;;30.95;23.80;;;20.20;99.90;;;;;;5013188;28;20523;-82
2022/05/19 08:53:43;;;;;;;26.33;22.65;;;20.40;99.90;;;;;;5013074;28;20068;-82
2022/05/19 08:56:21;;;;;;;28.95;23.40;;;20.60;99.90;;;;;;5013474;28;20095;-83
2022/05/19 08:58:56;;;;;;;26.02;23.27;;;20.90;99.90;;;;;;5029360;28;20041;-82
2022/05/19 09:01:37;;;;;;;27.08;24.17;;;21.30;99.90;;;;;;5029697;28;20041;-82
2022/05/19 09:04:22;;;;;;;27.65;23.10;;;21.50;99.90;;;;;;5018569;28;20084;-83
2022/05/19 09:10:02;;;;;;;25.33;22.08;;;22.00;99.90;;;;;;5029916;28;20053;-82
2022/05/19 09:12:32;;;;;;;24.58;21.98;;;22.20;99.90;;;;;;5030290;28;20053;-82
2022/05/19 09:14:58;;;;;;;23.35;20.52;;;22.40;99.90;;;;;;5030002;28;20064;-83
2022/05/19 09:17:28;;;;;;;23.80;19.38;;;22.70;99.90;;;;;;5013487;28;20546;-82
2022/05/19 09:19:59;;;;;;;25.80;20.05;;;22.90;99.90;;;;;;5012965;28;20429;-82
2022/05/19 09:22:33;;;;;;;21.63;19.40;;;23.10;99.90;;;;;;5029858;28;20038;-83
2022/05/19 09:25:04;;;;;;;24.23;19.42;;;23.30;99.90;;;;;;5013049;28;20060;-82
2022/05/19 09:27:30;;;;;;;23.92;19.08;;;23.60;99.90;;;;;;5029921;28;20045;-82
2022/05/19 09:29:58;;;;;;;19.35;16.88;;;23.80;99.90;;;;;;4996807;28;20050;-82
2022/05/19 09:32:39;;;;;;;22.20;18.08;;;23.90;99.90;;;;;;5013472;28;20045;-82
2022/05/19 09:35:18;;;;;;;19.05;16.90;;;24.00;99.90;;;;;;5012953;28;20087;-82
2022/05/19 09:38:06;;;;;;;17.95;14.88;;;24.20;99.90;;;;;;5030090;28;20057;-82
2022/05/19 09:40:37;;;;;;;17.02;15.23;;;24.50;99.90;;;;;;5029851;28;20045;-83
2022/05/19 09:43:29;;;;;;;18.05;15.15;;;24.90;99.00;;;;;;5029166;28;20049;-82
2022/05/19 09:46:04;;;;;;;17.52;15.73;;;25.40;95.80;;;;;;5028893;28;20172;-83
2022/05/19 09:48:39;;;;;;;17.88;15.98;;;25.80;92.20;;;;;;5029358;28;20407;-83
2022/05/19 09:51:11;;;;;;;21.60;15.55;;;25.90;88.50;;;;;;5012845;28;20057;-82
2022/05/19 09:53:40;;;;;;;19.73;14.88;;;25.90;89.60;;;;;;5012835;28;20045;-83
2022/05/19 09:56:12;;;;;;;29.20;17.83;;;26.10;86.50;;;;;;5028907;28;20402;-83
2022/05/19 09:58:44;;;;;;;15.77;14.02;;;26.40;84.70;;;;;;5029369;28;20053;-83
2022/05/19 10:01:25;;;;;;;17.50;13.77;;;26.70;79.20;;;;;;5045583;28;20234;-83
2022/05/19 10:03:54;;;;;;;15.48;13.77;;;26.90;77.80;;;;;;5042151;28;20049;-82
2022/05/19 10:06:23;;;;;;;16.10;14.38;;;26.80;76.00;;;;;;5029242;28;20049;-83
2022/05/19 10:08:59;;;;;;;17.50;15.02;;;26.90;76.80;;;;;;5029272;28;20119;-83
2022/05/19 10:11:29;;;;;;;14.93;13.23;;;27.20;75.30;;;;;;5029477;28;20049;-83
2022/05/19 10:14:14;;;;;;;15.50;13.50;;;27.50;73.40;;;;;;5028873;28;20053;-83
2022/05/19 10:16:55;;;;;;;15.63;13.35;;;27.50;71.00;;;;;;5012808;28;20042;-83
2022/05/19 10:19:36;;;;;;;16.13;13.27;;;27.40;71.70;;;;;;5029244;28;20046;-83
2022/05/19 10:22:11;;;;;;;15.18;13.50;;;27.10;72.60;;;;;;5028976;28;20045;-83
2022/05/19 10:24:48;;;;;;;14.73;13.33;;;26.90;73.70;;;;;;5012902;28;20049;-83
2022/05/19 10:33:11;;;;;;;16.67;14.90;;;26.00;77.10;;;;;;5028723;28;20139;-82
2022/05/19 10:35:55;;;;;;;15.02;13.40;;;25.70;79.70;;;;;;5029259;28;20060;-82
2022/05/19 10:38:47;;;;;;;15.35;13.93;;;25.50;79.90;;;;;;5029314;28;20191;-81
2022/05/19 10:41:24;;;;;;;15.77;14.18;;;25.40;81.40;;;;;;5028897;28;20045;-82
2022/05/19 10:44:15;;;;;;;16.67;13.63;;;25.50;82.00;;;;;;5029174;28;20490;-84
2022/05/19 10:47:00;;;;;;;17.05;14.70;;;25.70;79.80;;;;;;5029087;28;20046;-82
2022/05/19 10:49:41;;;;;;;16.52;14.00;;;26.10;79.20;;;;;;5011788;28;20107;-82
2022/05/19 10:52:19;;;;;;;16.70;14.30;;;27.00;76.80;;;;;;5028512;28;20053;-82
2022/05/19 10:55:15;;;;;;;16.50;14.25;;;28.60;73.60;;;;;;5012465;28;20045;-82
2022/05/19 10:58:37;;;;;;;16.60;14.88;;;30.80;67.80;;;;;;5011753;28;20054;-82
2022/05/19 11:01:24;;;;;;;15.60;14.00;;;32.20;58.90;;;;;;5013937;28;20049;-82
2022/05/19 11:04:47;;;;;;;19.25;14.15;;;31.70;56.00;;;;;;5025487;28;20049;-82
2022/05/19 11:07:35;;;;;;;15.38;13.75;;;31.00;57.30;;;;;;5010543;28;20050;-83
2022/05/19 11:10:33;;;;;;;13.30;11.93;;;31.60;57.00;;;;;;5010763;28;20380;-82
2022/05/19 11:13:16;;;;;;;15.32;12.90;;;33.10;52.80;;;;;;5016998;28;20093;-82
2022/05/19 11:15:58;;;;;;;12.23;11.02;;;34.10;50.20;;;;;;5016104;28;20132;-82
2022/05/19 11:18:30;;;;;;;14.43;12.93;;;34.40;48.70;;;;;;5032228;28;20096;-82
2022/05/19 11:21:41;;;;;;;12.85;11.55;;;35.00;47.50;;;;;;5032382;28;20061;-82
2022/05/19 11:24:13;;;;;;;13.52;12.13;;;35.80;45.40;;;;;;5026335;28;20064;-82
2022/05/19 11:26:52;;;;;;;13.20;11.90;;;35.20;44.40;;;;;;5015775;28;20068;-82
2022/05/19 11:29:26;;;;;;;14.35;12.15;;;35.10;44.20;;;;;;5031821;28;20505;-82
2022/05/19 11:32:04;;;;;;;15.15;12.18;;;35.30;43.80;;;;;;5032148;28;20132;-82
2022/05/19 11:34:50;;;;;;;13.82;12.02;;;35.70;43.00;;;;;;5032014;28;20049;-82
2022/05/19 11:37:22;;;;;;;17.17;13.07;;;35.90;42.10;;;;;;5015078;28;20053;-82
2022/05/19 11:40:20;;;;;;;13.00;11.88;;;36.20;41.80;;;;;;5032119;28;20052;-82
2022/05/19 11:43:07;;;;;;;13.55;11.98;;;36.40;41.80;;;;;;5031875;28;20376;-83
2022/05/19 11:46:12;;;;;;;12.18;10.95;;;35.80;41.40;;;;;;5031916;28;20490;-82
2022/05/19 11:55:13;;;;;;;12.73;10.82;;;34.30;43.80;;;;;;5031614;28;20053;-81
2022/05/19 11:58:20;;;;;;;11.75;8.20;;;33.70;43.60;;;;;;5031542;28;20061;-83
2022/05/19 12:01:03;;;;;;;7.45;6.60;;;33.10;43.70;;;;;;5031346;28;20561;-71
2022/05/19 12:03:56;;;;;;;8.95;7.30;;;32.40;42.30;;;;;;5030632;28;20095;-82
2022/05/19 12:06:46;;;;;;;7.07;6.25;;;31.90;44.30;;;;;;5031089;28;20479;-82
2022/05/19 12:09:53;;;;;;;8.10;6.75;;;31.70;45.90;;;;;;5031047;28;20046;-82
2022/05/19 12:12:23;;;;;;;9.82;8.40;;;31.60;46.30;;;;;;4958083;28;20549;-82
2022/05/19 12:15:21;;;;;;;9.68;7.93;;;31.50;46.40;;;;;;4974679;28;20646;-82
2022/05/19 12:18:31;;;;;;;7.13;5.95;;;31.30;46.00;;;;;;4994064;28;20053;-82
2022/05/19 12:21:00;;;;;;;6.70;4.78;;;30.80;45.90;;;;;;5020624;28;20056;-83
2022/05/19 12:23:38;;;;;;;6.57;5.60;;;30.40;47.20;;;;;;5034687;28;20049;-82
2022/05/19 12:26:16;;;;;;;4.90;4.40;;;30.00;47.00;;;;;;5029764;28;20144;-84
2022/05/19 12:29:11;;;;;;;5.72;4.00;;;29.40;47.80;;;;;;5023752;28;20045;-83
2022/05/19 12:31:59;;;;;;;6.63;3.70;;;29.00;49.00;;;;;;5028149;28;20037;-82
2022/05/19 12:34:50;;;;;;;7.07;3.85;;;28.60;49.20;;;;;;5037253;28;20040;-82
2022/05/19 12:37:38;;;;;;;3.72;3.00;;;28.00;48.50;;;;;;5035206;28;20072;-82
2022/05/19 12:40:28;;;;;;;4.30;2.85;;;27.50;50.40;;;;;;5013826;28;20048;-82
2022/05/19 12:43:12;;;;;;;6.30;2.40;;;27.20;51.80;;;;;;5055491;28;20100;-82
2022/05/19 12:45:49;;;;;;;3.53;2.92;;;26.90;52.50;;;;;;5028739;28;20064;-82
2022/05/19 12:48:14;;;;;;;2.90;2.50;;;26.60;53.60;;;;;;5026301;28;20049;-82
2022/05/19 12:51:08;;;;;;;3.90;3.00;;;26.40;54.60;;;;;;5029236;28;20045;-83
2022/05/19 12:53:34;;;;;;;4.30;2.65;;;26.30;54.80;;;;;;5013505;28;20045;-82
2022/05/19 12:56:00;;;;;;;4.30;3.10;;;26.00;55.80;;;;;;5043724;28;20123;-82
2022/05/19 12:58:38;;;;;;;4.43;2.72;;;25.80;56.30;;;;;;5006941;28;20071;-83
2022/05/19 13:01:36;;;;;;;4.10;2.60;;;25.60;58.20;;;;;;5027324;28;20058;-83
2022/05/19 13:04:29;;;;;;;6.35;3.00;;;25.00;61.10;;;;;;5010371;28;20048;-82
2022/05/19 13:07:21;;;;;;;6.78;3.22;;;24.10;72.00;;;;;;5024194;28;20049;-83
2022/05/19 13:09:56;;;;;;;6.45;3.50;;;23.10;96.90;;;;;;5013794;28;20041;-83
2022/05/19 13:12:25;;;;;;;6.17;4.07;;;22.00;99.90;;;;;;5011547;28;20075;-83
2022/05/19 13:14:55;;;;;;;6.75;3.95;;;21.30;99.90;;;;;;5016593;28;20446;-84